Ornslund, Denmark
Current Conditions -  °F | °C
As of 12:50 PM on Saturday 20 Dec 2014 (Local Time) from EKAH Reporting Station
Rain Showers Rain Showers  
Wind Chill: 30°   Ceiling: 3400
Heat Index: 39°   Visibility: 6mi
Dew Point: 34°   Wind: 16mph
Humidity: 81%   Direction: 250°WSW
Pressure: 29.38"   Gusts: 29mph
Location:  55.7°N, 10.6°E
Report Text: EKAH 201150Z AUTO 25014G25KT 210V280 9999NDV -SHRA FEW010///BKN034/// 04/01 Q0995
Loading
Personal Weather Stations






























Interactive Weather Map New forecast layout! Learn more

10-Day Weather Forecast

Advertisements
Track Severe Weather on mobile